Time;durP1;ratioP1;P1;durP2;ratioP2;P2;SDS_P1;SDS_P2;PMS_P1;PMS_P2;Temp;Humidity;BMP_temperature;BMP_pressure;BME280_temperature;BME280_humidity;BME280_pressure;Samples;Min_cycle;Max_cycle;Signal;HPM_P1;HPM_P2
2023/02/07 00:10:38;;;;;;;;;;;12.90;2201.60;;;;;;5002397;23;20054;-84
2023/02/07 00:13:56;;;;;;;75.57;41.92;;;0.00;2201.60;;;;;;4964517;28;19906;-84
2023/02/07 00:17:38;;;;;;;85.70;44.90;;;12.90;2201.60;;;;;;4981975;28;20067;-85
2023/02/07 00:24:47;;;;;;;88.93;45.75;;;0.20;2201.60;;;;;;4983219;28;20085;-82
2023/02/07 00:39:32;;;;;;;48.30;28.08;;;13.30;2201.60;;;;;;5010752;23;20054;-83
2023/02/07 01:14:02;;;;;;;63.05;35.22;;;13.00;2201.60;;;;;;5022051;23;20050;-85
2023/02/07 01:17:20;;;;;;;89.22;43.03;;;13.00;2201.60;;;;;;4998743;28;20061;-82
2023/02/07 01:31:21;;;;;;;71.97;35.25;;;13.00;2201.60;;;;;;4934357;29;20027;-84
2023/02/07 01:34:34;;;;;;;60.40;32.25;;;13.10;2201.60;;;;;;4930846;29;20053;-83
2023/02/07 03:04:46;;;;;;;49.20;26.27;;;13.60;2201.60;;;;;;4999776;28;20030;-85
2023/02/07 03:11:46;;;;;;;86.97;42.45;;;38.40;2201.60;;;;;;4931082;29;20043;-86
2023/02/07 03:29:20;;;;;;;46.38;24.75;;;13.60;2201.60;;;;;;4978468;28;20041;-84
2023/02/07 03:49:21;;;;;;;41.78;24.67;;;13.70;2201.60;;;;;;4997201;28;20038;-85
2023/02/07 03:52:55;;;;;;;43.40;23.33;;;38.40;2201.60;;;;;;4921884;29;20028;-84
2023/02/07 03:56:55;;;;;;;47.78;26.73;;;38.40;2201.60;;;;;;4865801;29;20034;-83
2023/02/07 04:00:40;;;;;;;56.15;29.30;;;38.60;2201.60;;;;;;4865630;29;20086;-85
2023/02/07 04:07:01;;;;;;;55.90;30.67;;;38.60;2201.60;;;;;;4847610;29;20105;-85
2023/02/07 04:25:43;;;;;;;69.40;36.42;;;38.50;2201.60;;;;;;5051226;23;20031;-83
2023/02/07 04:29:22;;;;;;;51.90;28.92;;;38.60;2201.60;;;;;;4952713;29;20040;-85
2023/02/07 04:56:46;;;;;;;103.20;58.70;;;38.70;2201.60;;;;;;4935808;29;20290;-85
2023/02/07 05:00:34;;;;;;;105.40;54.83;;;38.90;2201.60;;;;;;4944080;29;20052;-84
2023/02/07 05:07:00;;;;;;;124.88;68.45;;;38.80;2201.60;;;;;;4916631;29;20043;-81
2023/02/07 05:10:14;;;;;;;101.93;59.25;;;38.90;2201.60;;;;;;4920328;29;20016;-85
2023/02/07 05:16:50;;;;;;;128.65;75.50;;;39.30;2201.60;;;;;;4933127;29;20036;-85
2023/02/07 05:20:26;;;;;;;145.77;74.82;;;39.10;2201.60;;;;;;4936446;29;20095;-82
2023/02/07 05:24:08;;;;;;;182.40;99.15;;;39.10;2201.60;;;;;;4907839;29;20028;-84
2023/02/07 05:40:48;;;;;;;209.50;117.82;;;39.10;2201.60;;;;;;5001640;28;20058;-85
2023/02/07 05:59:45;;;;;;;175.18;92.20;;;38.90;2201.60;;;;;;5087843;23;20061;-86
2023/02/07 06:03:05;;;;;;;129.18;72.50;;;39.00;2201.60;;;;;;4972892;28;20056;-86
2023/02/07 06:06:26;;;;;;;128.93;64.10;;;38.90;2201.60;;;;;;4997385;23;20059;-84
2023/02/07 06:09:16;;;;;;;85.45;46.10;;;38.80;2201.60;;;;;;4980060;28;20035;-85
2023/02/07 06:12:27;;;;;;;80.10;39.95;;;38.80;2201.60;;;;;;4955278;23;20045;-85
2023/02/07 07:06:25;;;;;;;49.03;23.52;;;38.50;2201.60;;;;;;4887943;29;20044;-81
2023/02/07 07:09:26;;;;;;;51.85;25.00;;;38.40;2201.60;;;;;;4982667;28;20026;-86
2023/02/07 07:12:50;;;;;;;55.85;29.92;;;38.40;2201.60;;;;;;4990611;23;20042;-86
2023/02/07 07:15:39;;;;;;;49.50;27.05;;;13.70;2201.60;;;;;;5052761;23;20043;-86
2023/02/07 07:26:16;;;;;;;52.35;29.27;;;13.60;2201.60;;;;;;4903382;29;20056;-85
2023/02/07 07:29:03;;;;;;;38.58;22.13;;;13.50;2201.60;;;;;;4946117;23;20510;-85
2023/02/07 07:47:01;;;;;;;57.78;30.92;;;13.50;2201.60;;;;;;4977572;26;20043;-86
2023/02/07 07:50:07;;;;;;;58.45;33.47;;;13.50;2201.60;;;;;;4979320;28;20075;-85
2023/02/07 07:52:37;;;;;;;54.20;31.42;;;13.40;2201.60;;;;;;4979336;28;20059;-85
2023/02/07 08:28:45;;;;;;;42.03;23.52;;;13.30;2201.60;;;;;;5017160;23;20039;-84
2023/02/07 08:32:38;;;;;;;46.65;26.60;;;13.50;2201.60;;;;;;4922550;29;20053;-84
2023/02/07 09:34:20;;;;;;;47.53;28.48;;;0.20;2201.60;;;;;;5013112;23;20053;-83
2023/02/07 09:40:41;;;;;;;39.33;22.63;;;0.10;2201.60;;;;;;4938838;29;20032;-86
2023/02/07 09:50:53;;;;;;;48.47;24.60;;;0.50;2201.60;;;;;;4942541;29;20036;-85
2023/02/07 09:53:54;;;;;;;43.00;24.38;;;0.50;2201.60;;;;;;4933842;29;20028;-85
2023/02/07 09:57:05;;;;;;;41.42;23.52;;;0.50;2201.60;;;;;;4956308;29;20040;-80
2023/02/07 09:59:52;;;;;;;45.95;23.85;;;0.60;2201.60;;;;;;4933679;29;20039;-79
2023/02/07 10:02:43;;;;;;;36.80;20.40;;;0.70;2201.60;;;;;;4932519;29;20035;-80
2023/02/07 10:05:19;;;;;;;31.35;19.98;;;0.60;2201.60;;;;;;4926298;29;20055;-80
2023/02/07 10:07:47;;;;;;;39.75;23.20;;;0.60;2201.60;;;;;;4936949;29;20035;-82
2023/02/07 10:10:30;;;;;;;39.33;23.88;;;0.80;2201.60;;;;;;4949788;29;20489;-79
2023/02/07 10:13:09;;;;;;;39.90;23.73;;;0.70;2201.60;;;;;;4946157;29;20024;-80
2023/02/07 10:16:11;;;;;;;47.55;25.48;;;0.70;2201.60;;;;;;4949645;28;20019;-80
2023/02/07 10:18:55;;;;;;;49.00;24.60;;;0.80;2201.60;;;;;;4953371;28;20019;-79
2023/02/07 10:21:42;;;;;;;51.22;31.42;;;0.80;2201.60;;;;;;4961392;28;20022;-78
2023/02/07 10:24:45;;;;;;;50.50;32.42;;;0.90;2201.60;;;;;;4950072;28;20491;-79
2023/02/07 10:27:14;;;;;;;39.10;23.85;;;25.70;2201.60;;;;;;4961555;28;20031;-78
2023/02/07 10:29:52;;;;;;;38.10;22.95;;;26.00;2201.60;;;;;;4964720;28;20049;-78
2023/02/07 10:32:27;;;;;;;31.80;19.23;;;26.10;2201.60;;;;;;4962568;28;20030;-78
2023/02/07 10:35:01;;;;;;;46.45;27.42;;;26.10;2201.60;;;;;;4944386;29;20066;-80
2023/02/07 10:37:36;;;;;;;44.67;27.77;;;26.00;2201.60;;;;;;4944418;29;20067;-80
2023/02/07 10:40:20;;;;;;;48.35;28.88;;;26.10;2201.60;;;;;;4952411;28;20019;-80
2023/02/07 10:42:57;;;;;;;50.35;28.00;;;26.20;2201.60;;;;;;4948676;29;20027;-78
2023/02/07 10:45:23;;;;;;;44.80;28.35;;;26.20;2201.60;;;;;;4946074;29;20023;-78
2023/02/07 10:47:49;;;;;;;26.65;16.80;;;26.20;2201.60;;;;;;4946414;29;20019;-80
2023/02/07 10:50:18;;;;;;;25.40;16.02;;;26.10;2201.60;;;;;;4946090;29;20034;-80
2023/02/07 10:52:55;;;;;;;25.55;15.65;;;26.20;2201.60;;;;;;4954679;28;20118;-80
2023/02/07 10:55:45;;;;;;;30.02;17.77;;;26.20;2201.60;;;;;;4953079;29;20035;-78
2023/02/07 10:58:22;;;;;;;68.32;34.00;;;26.40;2201.60;;;;;;4938829;29;20027;-80
2023/02/07 11:00:53;;;;;;;50.33;27.58;;;26.50;2201.60;;;;;;4946474;29;20364;-78
2023/02/07 11:03:25;;;;;;;29.05;16.60;;;26.50;2201.60;;;;;;4942931;29;20023;-78
2023/02/07 11:05:55;;;;;;;36.43;19.83;;;51.20;2227.20;;;;;;4946009;29;20042;-80
2023/02/07 11:08:30;;;;;;;42.13;25.27;;;51.30;2227.20;;;;;;4943996;29;20261;-79
2023/02/07 11:10:57;;;;;;;28.48;17.20;;;51.60;2227.20;;;;;;4946022;29;20043;-78
2023/02/07 11:13:28;;;;;;;49.00;27.42;;;51.60;2227.20;;;;;;4945850;29;20039;-79
2023/02/07 11:16:02;;;;;;;21.65;13.90;;;51.50;2227.20;;;;;;4950166;28;20031;-79
2023/02/07 11:18:36;;;;;;;28.38;17.35;;;51.40;2227.20;;;;;;4967733;28;20058;-79
2023/02/07 11:21:06;;;;;;;30.80;21.50;;;51.60;2227.20;;;;;;4967812;28;20023;-80
2023/02/07 11:23:32;;;;;;;28.85;18.45;;;51.80;2227.20;;;;;;4968108;28;20035;-79
2023/02/07 11:26:01;;;;;;;37.38;23.40;;;52.10;2227.20;;;;;;4950749;29;20027;-77
2023/02/07 11:28:29;;;;;;;22.67;14.90;;;76.90;2227.20;;;;;;4950286;29;20031;-80
2023/02/07 11:31:04;;;;;;;22.58;13.98;;;76.90;2227.20;;;;;;4950224;29;20031;-79
2023/02/07 11:33:33;;;;;;;43.78;27.40;;;77.20;2227.20;;;;;;4973149;28;20066;-78
2023/02/07 11:36:09;;;;;;;23.85;16.05;;;77.40;2227.20;;;;;;4970866;28;20494;-80
2023/02/07 11:38:38;;;;;;;26.70;18.58;;;77.50;2227.20;;;;;;4985776;28;20027;-79
2023/02/07 11:41:05;;;;;;;24.25;15.90;;;77.60;2227.20;;;;;;4984893;28;20464;-79
2023/02/07 11:43:33;;;;;;;27.67;18.77;;;102.70;2227.20;;;;;;4985684;28;20023;-80
2023/02/07 11:46:09;;;;;;;24.73;16.95;;;103.00;2227.20;;;;;;4982992;28;20119;-79
2023/02/07 11:48:38;;;;;;;26.40;14.70;;;103.10;2227.20;;;;;;4976294;28;20031;-79
2023/02/07 11:51:07;;;;;;;29.92;17.00;;;103.10;2227.20;;;;;;4964140;28;20031;-80
2023/02/07 11:53:44;;;;;;;23.73;16.42;;;102.90;2227.20;;;;;;4968539;28;20042;-77
2023/02/07 11:56:29;;;;;;;24.40;15.00;;;102.90;2227.20;;;;;;4965555;28;20061;-80
2023/02/07 11:58:56;;;;;;;25.23;17.23;;;102.70;2227.20;;;;;;4977717;28;20035;-81
2023/02/07 12:01:27;;;;;;;29.20;16.33;;;102.70;2227.20;;;;;;4985086;28;20034;-80
2023/02/07 12:04:08;;;;;;;38.70;24.20;;;102.60;2227.20;;;;;;4983253;28;20500;-80
2023/02/07 12:07:00;;;;;;;37.10;22.15;;;102.40;2227.20;;;;;;4965840;28;20031;-81
2023/02/07 12:09:39;;;;;;;47.88;27.17;;;77.60;2227.20;;;;;;4966037;28;20022;-80
2023/02/07 12:12:17;;;;;;;58.22;31.80;;;102.70;2227.20;;;;;;4953936;28;20058;-80
2023/02/07 12:14:58;;;;;;;53.63;32.00;;;128.00;2252.80;;;;;;4968878;28;20119;-81
2023/02/07 12:17:41;;;;;;;61.45;32.53;;;128.50;2252.80;;;;;;4965719;28;20126;-81
2023/02/07 12:20:22;;;;;;;29.17;18.90;;;128.90;2252.80;;;;;;4967970;28;20467;-80
2023/02/07 12:22:59;;;;;;;45.10;28.27;;;153.80;2176.00;;;;;;4971296;28;20035;-80
2023/02/07 12:36:29;;;;;;;39.58;25.50;;;102.90;2227.20;;;;;;4980653;28;20078;-84
2023/02/07 13:15:08;;;;;;;46.22;30.35;;;128.20;2201.60;;;;;;4986476;28;20039;-84
2023/02/07 13:35:12;;;;;;;63.08;37.38;;;77.00;2227.20;;;;;;3376279;23;20118;-79
2023/02/07 13:37:50;;;;;;;48.17;28.23;;;77.10;2227.20;;;;;;4973185;28;20050;-79
2023/02/07 13:40:24;;;;;;;49.65;30.52;;;76.80;2227.20;;;;;;4972956;28;20034;-80
2023/02/07 13:43:14;;;;;;;49.80;30.70;;;77.00;2227.20;;;;;;4974020;28;20534;-80
2023/02/07 13:45:59;;;;;;;39.40;26.40;;;77.00;2227.20;;;;;;4973076;28;20030;-79
2023/02/07 13:48:57;;;;;;;54.00;32.22;;;77.10;2227.20;;;;;;4972645;28;20062;-79
2023/02/07 13:52:14;;;;;;;36.90;22.83;;;77.40;2227.20;;;;;;4978194;28;20035;-84
2023/02/07 14:01:00;;;;;;;51.15;31.70;;;102.70;2227.20;;;;;;5000108;28;19945;-83
2023/02/07 14:04:01;;;;;;;62.08;37.20;;;103.00;2150.40;;;;;;4967610;28;20046;-84
2023/02/07 14:06:54;;;;;;;46.55;25.23;;;128.10;2150.40;;;;;;4959742;28;20022;-86
2023/02/07 14:09:35;;;;;;;29.35;19.50;;;128.40;2252.80;;;;;;4980179;28;20043;-82
2023/02/07 14:12:53;;;;;;;22.85;14.63;;;103.30;2022.40;;;;;;4975241;28;20150;-82
2023/02/07 14:16:13;;;;;;;39.60;22.08;;;128.10;2048.00;;;;;;4998032;28;20007;-87
2023/02/07 14:19:06;;;;;;;33.88;22.73;;;;;;;;;;5035201;23;20064;-84
2023/02/07 14:24:48;;;;;;;31.65;20.98;;;;;;;;;;5018276;28;20110;-85
2023/02/07 14:32:52;;;;;;;37.97;22.98;;;;;;;;;;2241551;23;20314;-82
2023/02/07 14:42:03;;;;;;;37.60;22.88;;;;;;;;;;5038919;23;20159;-86
2023/02/07 14:51:06;;;;;;;55.58;37.78;;;77.30;2227.20;;;;;;5043704;23;20046;31
2023/02/07 14:58:23;;;;;;;56.97;35.67;;;76.90;2227.20;;;;;;4999171;28;20037;-82
2023/02/07 15:09:12;;;;;;;67.15;38.97;;;51.30;2227.20;;;;;;4958539;29;20087;-83
2023/02/07 15:11:41;;;;;;;58.20;34.33;;;51.80;2227.20;;;;;;4926906;29;20048;-84
2023/02/07 15:37:49;;;;;;;56.40;31.88;;;51.30;2227.20;;;;;;4938007;29;20057;-86
2023/02/07 15:41:21;;;;;;;52.15;29.88;;;26.50;2201.60;;;;;;4923192;29;20032;-84
2023/02/07 15:45:10;;;;;;;56.25;31.77;;;26.50;2201.60;;;;;;4921748;29;20020;-86
2023/02/07 15:48:33;;;;;;;58.53;32.53;;;26.40;2201.60;;;;;;4864104;29;20037;-86
2023/02/07 15:51:47;;;;;;;53.95;30.67;;;26.30;2201.60;;;;;;4849079;29;20022;-86
2023/02/07 15:55:16;;;;;;;44.90;27.10;;;26.30;2201.60;;;;;;4830461;29;20102;-84
2023/02/07 16:01:34;;;;;;;62.85;36.83;;;26.30;2201.60;;;;;;4841300;29;20050;-81
2023/02/07 16:04:05;;;;;;;65.97;34.45;;;25.80;2201.60;;;;;;4834896;29;20034;-82
2023/02/07 16:06:59;;;;;;;83.85;44.90;;;26.20;2201.60;;;;;;4838886;29;20054;-80
2023/02/07 16:10:13;;;;;;;68.95;38.15;;;26.20;2201.60;;;;;;4898287;29;20063;-79
2023/02/07 16:12:51;;;;;;;79.28;41.30;;;26.10;2201.60;;;;;;4869360;29;20032;-80
2023/02/07 16:15:34;;;;;;;84.07;47.28;;;26.00;2201.60;;;;;;4905576;29;20031;-81
2023/02/07 16:25:05;;;;;;;59.35;34.53;;;25.90;2201.60;;;;;;5018561;28;20029;-82
2023/02/07 16:34:16;;;;;;;53.03;33.78;;;25.70;2201.60;;;;;;4957009;29;20106;-86
2023/02/07 18:00:06;;;;;;;85.05;49.67;;;0.40;2201.60;;;;;;5844506;23;20086;-78
2023/02/07 18:09:34;;;;;;;112.57;52.92;;;0.30;2201.60;;;;;;5630016;23;20051;-79
2023/02/07 18:12:04;;;;;;;119.13;73.47;;;0.10;2201.60;;;;;;4952556;29;20059;-77
2023/02/07 18:24:25;;;;;;;83.15;48.65;;;0.10;2201.60;;;;;;5520900;23;20110;-82
2023/02/07 18:27:00;;;;;;;74.05;43.63;;;0.00;2201.60;;;;;;4972994;29;20126;-78
2023/02/07 18:29:36;;;;;;;66.45;42.08;;;0.10;2201.60;;;;;;4957591;29;20043;-77
2023/02/07 18:32:57;;;;;;;68.97;42.47;;;13.00;2201.60;;;;;;4975910;28;20094;-78
2023/02/07 18:35:23;;;;;;;50.60;30.17;;;0.10;2201.60;;;;;;4950405;29;20039;-79
2023/02/07 18:37:50;;;;;;;41.72;24.70;;;0.10;2201.60;;;;;;4969980;29;20035;-78
2023/02/07 18:40:18;;;;;;;50.20;30.98;;;0.20;2201.60;;;;;;4968526;29;20042;-78
2023/02/07 18:42:44;;;;;;;56.80;36.40;;;0.20;2201.60;;;;;;4950928;29;20586;-79
2023/02/07 18:45:13;;;;;;;65.25;35.58;;;0.10;2201.60;;;;;;4951876;29;20027;-78
2023/02/07 18:47:51;;;;;;;67.60;42.60;;;0.10;2201.60;;;;;;4935367;29;20074;-77
2023/02/07 18:51:10;;;;;;;69.68;40.38;;;12.90;2201.60;;;;;;4971126;28;20095;-79
2023/02/07 19:00:38;;;;;;;115.65;64.32;;;12.90;2201.60;;;;;;5190534;23;20050;-78
2023/02/07 19:03:04;;;;;;;79.57;47.97;;;13.00;2201.60;;;;;;4990962;28;20030;-78
2023/02/07 19:05:30;;;;;;;96.57;57.75;;;13.00;2201.60;;;;;;4992014;28;20035;-78
2023/02/07 19:07:57;;;;;;;152.13;88.28;;;13.00;2201.60;;;;;;4992811;28;20019;-78
2023/02/07 19:10:23;;;;;;;159.88;88.80;;;13.10;2201.60;;;;;;4977711;28;20029;-79
2023/02/07 19:41:46;;;;;;;93.40;56.55;;;13.10;2201.60;;;;;;4996567;28;20037;-79
2023/02/07 19:52:47;;;;;;;61.30;37.75;;;13.10;2201.60;;;;;;5546558;23;20061;-84
2023/02/07 19:55:45;;;;;;;91.40;50.85;;;13.00;2201.60;;;;;;4994295;28;20046;-85
2023/02/07 19:58:17;;;;;;;85.90;52.28;;;13.30;2201.60;;;;;;4917620;29;20040;-89
2023/02/07 20:00:48;;;;;;;89.32;47.60;;;13.10;2201.60;;;;;;4917048;29;20028;-89
2023/02/07 20:03:18;;;;;;;67.47;40.22;;;13.00;2201.60;;;;;;4899862;29;20040;-88
2023/02/07 21:00:57;;;;;;;115.90;63.38;;;0.10;2201.60;;;;;;4997019;28;20057;-84
2023/02/07 21:06:51;;;;;;;65.85;38.92;;;0.00;2201.60;;;;;;5243522;23;20055;-86
2023/02/07 21:19:42;;;;;;;88.32;45.72;;;0.10;2201.60;;;;;;5097291;23;21327;-89
2023/02/07 21:22:52;;;;;;;99.38;48.28;;;0.00;2201.60;;;;;;5305613;23;20115;-86
2023/02/07 21:26:29;;;;;;;90.15;46.45;;;0.00;2201.60;;;;;;4977345;28;20035;-88
2023/02/07 23:13:56;;;;;;;88.47;47.10;;;13.20;2201.60;;;;;;4921929;29;20053;-84
